sensor_id;sensor_type;location;lat;lon;timestamp;pressure;altitude;pressure_sealevel;temperature;humidity
74474;BME280;62922;-6.168;106.796;2022-10-31T00:01:21;100892.88;;;31.75;52.71
74474;BME280;62922;-6.168;106.796;2022-10-31T00:03:48;100905.66;;;31.72;52.83
74474;BME280;62922;-6.168;106.796;2022-10-31T00:06:14;100914.28;;;31.76;52.52
74474;BME280;62922;-6.168;106.796;2022-10-31T00:08:40;100919.44;;;31.74;52.69
74474;BME280;62922;-6.168;106.796;2022-10-31T00:11:08;100917.78;;;31.73;52.43
74474;BME280;62922;-6.168;106.796;2022-10-31T00:13:35;100923.75;;;31.71;52.73
74474;BME280;62922;-6.168;106.796;2022-10-31T00:16:03;100915.78;;;31.73;52.71
74474;BME280;62922;-6.168;106.796;2022-10-31T00:18:29;100922.94;;;31.71;52.82
74474;BME280;62922;-6.168;106.796;2022-10-31T00:23:25;100926.59;;;31.71;52.89
74474;BME280;62922;-6.168;106.796;2022-10-31T00:25:51;100925.41;;;31.72;52.73
74474;BME280;62922;-6.168;106.796;2022-10-31T00:28:17;100932.72;;;31.73;52.80
74474;BME280;62922;-6.168;106.796;2022-10-31T00:30:43;100930.91;;;31.77;52.92
74474;BME280;62922;-6.168;106.796;2022-10-31T00:33:09;100934.53;;;31.78;53.01
74474;BME280;62922;-6.168;106.796;2022-10-31T00:35:35;100932.53;;;31.78;53.02
74474;BME280;62922;-6.168;106.796;2022-10-31T00:38:01;100935.00;;;31.80;53.12
74474;BME280;62922;-6.168;106.796;2022-10-31T00:40:29;100940.00;;;31.83;53.06
74474;BME280;62922;-6.168;106.796;2022-10-31T00:42:55;100942.34;;;31.81;53.30
74474;BME280;62922;-6.168;106.796;2022-10-31T00:45:21;100937.84;;;31.80;53.35
74474;BME280;62922;-6.168;106.796;2022-10-31T00:47:47;100944.81;;;31.82;53.42
74474;BME280;62922;-6.168;106.796;2022-10-31T00:50:13;100942.84;;;31.83;53.76
74474;BME280;62922;-6.168;106.796;2022-10-31T00:52:39;100944.16;;;31.77;53.98
74474;BME280;62922;-6.168;106.796;2022-10-31T00:55:05;100945.00;;;31.77;54.16
74474;BME280;62922;-6.168;106.796;2022-10-31T00:57:31;100946.84;;;31.73;54.29
74474;BME280;62922;-6.168;106.796;2022-10-31T00:59:57;100940.66;;;31.80;53.92
74474;BME280;62922;-6.168;106.796;2022-10-31T01:02:22;100944.81;;;31.82;53.85
74474;BME280;62922;-6.168;106.796;2022-10-31T01:04:51;100939.31;;;31.86;53.78
74474;BME280;62922;-6.168;106.796;2022-10-31T01:07:16;100945.16;;;31.89;53.99
74474;BME280;62922;-6.168;106.796;2022-10-31T01:09:42;100944.47;;;31.92;53.65
74474;BME280;62922;-6.168;106.796;2022-10-31T01:12:08;100948.47;;;31.91;53.96
74474;BME280;62922;-6.168;106.796;2022-10-31T01:14:35;100942.81;;;31.91;53.97
74474;BME280;62922;-6.168;106.796;2022-10-31T01:17:01;100950.28;;;31.96;54.01
74474;BME280;62922;-6.168;106.796;2022-10-31T01:19:29;100948.59;;;32.03;53.47
74474;BME280;62922;-6.168;106.796;2022-10-31T01:21:55;100950.25;;;32.04;53.74
74474;BME280;62922;-6.168;106.796;2022-10-31T01:24:21;100944.28;;;32.06;53.40
74474;BME280;62922;-6.168;106.796;2022-10-31T01:26:47;100947.09;;;32.06;53.23
74474;BME280;62922;-6.168;106.796;2022-10-31T01:29:13;100946.59;;;32.04;53.69
74474;BME280;62922;-6.168;106.796;2022-10-31T01:31:39;100945.09;;;32.06;53.63
74474;BME280;62922;-6.168;106.796;2022-10-31T01:34:05;100957.38;;;32.10;53.33
74474;BME280;62922;-6.168;106.796;2022-10-31T01:36:35;100948.41;;;32.08;53.46
74474;BME280;62922;-6.168;106.796;2022-10-31T01:39:03;100944.06;;;32.11;53.43
74474;BME280;62922;-6.168;106.796;2022-10-31T01:41:31;100940.59;;;32.14;54.41
74474;BME280;62922;-6.168;106.796;2022-10-31T01:43:58;100950.38;;;32.16;53.93
74474;BME280;62922;-6.168;106.796;2022-10-31T01:48:50;100936.09;;;32.21;54.34
74474;BME280;62922;-6.168;106.796;2022-10-31T01:51:17;100930.56;;;32.25;53.59
74474;BME280;62922;-6.168;106.796;2022-10-31T01:53:44;100923.41;;;32.27;53.08
74474;BME280;62922;-6.168;106.796;2022-10-31T01:56:10;100927.69;;;32.33;52.99
74474;BME280;62922;-6.168;106.796;2022-10-31T01:58:40;100927.84;;;32.37;53.90
74474;BME280;62922;-6.168;106.796;2022-10-31T02:01:06;100931.16;;;32.39;54.28
74474;BME280;62922;-6.168;106.796;2022-10-31T02:03:32;100923.34;;;32.44;53.70
74474;BME280;62922;-6.168;106.796;2022-10-31T02:05:58;100927.34;;;32.43;53.37
74474;BME280;62922;-6.168;106.796;2022-10-31T02:08:28;100921.50;;;32.40;54.70
74474;BME280;62922;-6.168;106.796;2022-10-31T02:10:55;100928.81;;;32.41;55.17
74474;BME280;62922;-6.168;106.796;2022-10-31T02:13:21;100933.00;;;32.35;55.49
74474;BME280;62922;-6.168;106.796;2022-10-31T02:15:51;100927.22;;;32.31;55.54
74474;BME280;62922;-6.168;106.796;2022-10-31T02:18:17;100920.88;;;32.34;55.67
74474;BME280;62922;-6.168;106.796;2022-10-31T02:25:46;100921.84;;;32.38;55.61
74474;BME280;62922;-6.168;106.796;2022-10-31T02:40:38;100923.44;;;32.56;55.35
74474;BME280;62922;-6.168;106.796;2022-10-31T02:43:07;100908.94;;;32.67;54.61
74474;BME280;62922;-6.168;106.796;2022-10-31T02:45:42;100921.00;;;32.76;53.96
74474;BME280;62922;-6.168;106.796;2022-10-31T02:48:12;100920.78;;;32.81;54.70
74474;BME280;62922;-6.168;106.796;2022-10-31T02:50:41;100898.53;;;32.79;53.64
74474;BME280;62922;-6.168;106.796;2022-10-31T02:53:13;100902.94;;;32.89;53.25
74474;BME280;62922;-6.168;106.796;2022-10-31T02:58:10;100891.59;;;32.97;53.25
74474;BME280;62922;-6.168;106.796;2022-10-31T03:00:49;100898.06;;;32.98;54.23
74474;BME280;62922;-6.168;106.796;2022-10-31T03:03:22;100891.25;;;32.99;53.72
74474;BME280;62922;-6.168;106.796;2022-10-31T03:10:47;100882.41;;;33.00;53.93
74474;BME280;62922;-6.168;106.796;2022-10-31T03:13:21;100892.13;;;33.11;53.79
74474;BME280;62922;-6.168;106.796;2022-10-31T03:15:50;100881.91;;;33.19;52.72
74474;BME280;62922;-6.168;106.796;2022-10-31T03:18:23;100890.66;;;33.26;53.16
74474;BME280;62922;-6.168;106.796;2022-10-31T03:20:52;100882.53;;;33.24;52.80
74474;BME280;62922;-6.168;106.796;2022-10-31T03:23:20;100875.97;;;33.32;52.39
74474;BME280;62922;-6.168;106.796;2022-10-31T03:25:49;100871.03;;;33.41;52.83
74474;BME280;62922;-6.168;106.796;2022-10-31T03:28:16;100874.50;;;33.47;51.97
74474;BME280;62922;-6.168;106.796;2022-10-31T03:30:44;100874.03;;;33.45;52.44
74474;BME280;62922;-6.168;106.796;2022-10-31T03:33:13;100876.56;;;33.38;52.77
74474;BME280;62922;-6.168;106.796;2022-10-31T03:35:41;100870.78;;;33.34;52.73
74474;BME280;62922;-6.168;106.796;2022-10-31T03:38:08;100868.56;;;33.40;52.96
74474;BME280;62922;-6.168;106.796;2022-10-31T03:40:36;100870.19;;;33.41;52.69
74474;BME280;62922;-6.168;106.796;2022-10-31T03:43:05;100865.53;;;33.45;52.51
74474;BME280;62922;-6.168;106.796;2022-10-31T03:45:32;100858.25;;;33.56;52.21
74474;BME280;62922;-6.168;106.796;2022-10-31T03:48:04;100859.81;;;33.66;52.01
74474;BME280;62922;-6.168;106.796;2022-10-31T03:50:32;100853.09;;;33.70;51.52
74474;BME280;62922;-6.168;106.796;2022-10-31T03:53:13;100848.75;;;33.73;51.56
74474;BME280;62922;-6.168;106.796;2022-10-31T03:55:46;100838.50;;;33.80;51.63
74474;BME280;62922;-6.168;106.796;2022-10-31T03:58:18;100843.19;;;33.88;51.24
74474;BME280;62922;-6.168;106.796;2022-10-31T04:00:46;100840.16;;;33.93;51.31
74474;BME280;62922;-6.168;106.796;2022-10-31T04:03:15;100835.81;;;33.96;51.55
74474;BME280;62922;-6.168;106.796;2022-10-31T04:05:45;100829.88;;;33.89;52.25
74474;BME280;62922;-6.168;106.796;2022-10-31T04:08:17;100822.56;;;33.88;51.58
74474;BME280;62922;-6.168;106.796;2022-10-31T04:10:46;100824.56;;;33.87;52.14
74474;BME280;62922;-6.168;106.796;2022-10-31T04:13:14;100827.03;;;33.89;52.07
74474;BME280;62922;-6.168;106.796;2022-10-31T04:15:41;100825.16;;;33.93;51.81
74474;BME280;62922;-6.168;106.796;2022-10-31T04:18:08;100823.69;;;33.95;52.19
74474;BME280;62922;-6.168;106.796;2022-10-31T04:20:34;100816.81;;;33.96;51.69
74474;BME280;62922;-6.168;106.796;2022-10-31T04:23:01;100809.16;;;33.97;51.76
74474;BME280;62922;-6.168;106.796;2022-10-31T04:25:27;100810.09;;;34.01;52.44
74474;BME280;62922;-6.168;106.796;2022-10-31T04:27:53;100801.38;;;34.06;51.66
74474;BME280;62922;-6.168;106.796;2022-10-31T04:30:19;100799.13;;;34.11;51.73
74474;BME280;62922;-6.168;106.796;2022-10-31T04:32:45;100796.53;;;34.06;51.69
74474;BME280;62922;-6.168;106.796;2022-10-31T04:35:11;100802.66;;;34.08;51.74
74474;BME280;62922;-6.168;106.796;2022-10-31T04:37:37;100798.66;;;34.09;51.62
74474;BME280;62922;-6.168;106.796;2022-10-31T04:40:03;100799.59;;;34.13;51.70
74474;BME280;62922;-6.168;106.796;2022-10-31T04:42:29;100790.50;;;34.08;52.08
74474;BME280;62922;-6.168;106.796;2022-10-31T04:44:55;100791.47;;;34.12;52.23
74474;BME280;62922;-6.168;106.796;2022-10-31T04:47:21;100789.69;;;34.07;52.44
74474;BME280;62922;-6.168;106.796;2022-10-31T04:49:47;100782.22;;;34.03;52.29
74474;BME280;62922;-6.168;106.796;2022-10-31T04:52:13;100771.38;;;34.05;52.45
74474;BME280;62922;-6.168;106.796;2022-10-31T04:54:39;100771.25;;;34.01;53.13
74474;BME280;62922;-6.168;106.796;2022-10-31T04:57:04;100762.78;;;34.01;52.21
74474;BME280;62922;-6.168;106.796;2022-10-31T04:59:30;100751.34;;;33.98;52.61
74474;BME280;62922;-6.168;106.796;2022-10-31T05:01:56;100747.56;;;34.06;52.22
74474;BME280;62922;-6.168;106.796;2022-10-31T05:04:22;100729.84;;;34.21;51.63
74474;BME280;62922;-6.168;106.796;2022-10-31T05:06:48;100724.50;;;34.19;52.15
74474;BME280;62922;-6.168;106.796;2022-10-31T05:09:16;100730.53;;;34.18;52.44
74474;BME280;62922;-6.168;106.796;2022-10-31T05:11:42;100723.00;;;34.10;51.84
74474;BME280;62922;-6.168;106.796;2022-10-31T05:14:10;100722.66;;;34.11;51.72
74474;BME280;62922;-6.168;106.796;2022-10-31T05:16:36;100719.94;;;34.15;51.80
74474;BME280;62922;-6.168;106.796;2022-10-31T05:19:02;100715.09;;;34.15;52.46
74474;BME280;62922;-6.168;106.796;2022-10-31T05:21:28;100719.56;;;34.16;52.55
74474;BME280;62922;-6.168;106.796;2022-10-31T05:23:53;100717.50;;;34.29;52.17
74474;BME280;62922;-6.168;106.796;2022-10-31T05:26:19;100706.06;;;34.37;51.88
74474;BME280;62922;-6.168;106.796;2022-10-31T05:28:45;100696.72;;;34.37;52.01
74474;BME280;62922;-6.168;106.796;2022-10-31T05:31:11;100691.53;;;34.39;52.05
74474;BME280;62922;-6.168;106.796;2022-10-31T05:33:40;100700.84;;;34.39;52.06
74474;BME280;62922;-6.168;106.796;2022-10-31T05:36:06;100684.66;;;34.40;51.91
74474;BME280;62922;-6.168;106.796;2022-10-31T05:38:32;100686.94;;;34.47;51.64
74474;BME280;62922;-6.168;106.796;2022-10-31T05:40:58;100694.81;;;34.53;51.77
74474;BME280;62922;-6.168;106.796;2022-10-31T05:43:25;100701.75;;;34.56;51.27
74474;BME280;62922;-6.168;106.796;2022-10-31T05:45:52;100698.19;;;34.59;51.28
74474;BME280;62922;-6.168;106.796;2022-10-31T05:48:21;100686.41;;;34.57;51.43
74474;BME280;62922;-6.168;106.796;2022-10-31T05:50:49;100684.13;;;34.62;51.39
74474;BME280;62922;-6.168;106.796;2022-10-31T05:53:15;100677.28;;;34.63;51.21
74474;BME280;62922;-6.168;106.796;2022-10-31T05:55:42;100678.81;;;34.61;51.60
74474;BME280;62922;-6.168;106.796;2022-10-31T05:58:08;100667.59;;;34.64;51.31
74474;BME280;62922;-6.168;106.796;2022-10-31T06:00:34;100662.00;;;34.68;50.93
74474;BME280;62922;-6.168;106.796;2022-10-31T06:03:01;100662.84;;;34.68;51.28
74474;BME280;62922;-6.168;106.796;2022-10-31T06:05:28;100660.72;;;34.65;51.08
74474;BME280;62922;-6.168;106.796;2022-10-31T06:07:54;100664.75;;;34.64;51.17
74474;BME280;62922;-6.168;106.796;2022-10-31T06:10:20;100658.72;;;34.66;51.05
74474;BME280;62922;-6.168;106.796;2022-10-31T06:12:46;100653.50;;;34.68;50.73
74474;BME280;62922;-6.168;106.796;2022-10-31T06:15:12;100644.16;;;34.67;51.17
74474;BME280;62922;-6.168;106.796;2022-10-31T06:17:38;100640.06;;;34.65;51.05
74474;BME280;62922;-6.168;106.796;2022-10-31T06:20:04;100639.59;;;34.63;51.65
74474;BME280;62922;-6.168;106.796;2022-10-31T06:22:30;100629.72;;;34.57;51.98
74474;BME280;62922;-6.168;106.796;2022-10-31T06:24:56;100626.03;;;34.56;51.91
74474;BME280;62922;-6.168;106.796;2022-10-31T06:27:22;100619.22;;;34.57;51.74
74474;BME280;62922;-6.168;106.796;2022-10-31T06:29:48;100619.69;;;34.59;51.70
74474;BME280;62922;-6.168;106.796;2022-10-31T06:32:15;100624.88;;;34.57;52.14
74474;BME280;62922;-6.168;106.796;2022-10-31T06:34:41;100627.91;;;34.64;51.66
74474;BME280;62922;-6.168;106.796;2022-10-31T06:37:10;100610.53;;;34.66;51.84
74474;BME280;62922;-6.168;106.796;2022-10-31T06:39:36;100608.25;;;34.71;51.50
74474;BME280;62922;-6.168;106.796;2022-10-31T06:42:03;100618.22;;;34.81;51.31
74474;BME280;62922;-6.168;106.796;2022-10-31T06:44:31;100618.69;;;34.83;51.34
74474;BME280;62922;-6.168;106.796;2022-10-31T06:46:57;100617.69;;;34.75;51.32
74474;BME280;62922;-6.168;106.796;2022-10-31T06:49:26;100609.44;;;34.70;51.78
74474;BME280;62922;-6.168;106.796;2022-10-31T06:51:52;100599.84;;;34.75;51.68
74474;BME280;62922;-6.168;106.796;2022-10-31T06:54:17;100606.81;;;34.77;51.61
74474;BME280;62922;-6.168;106.796;2022-10-31T06:56:46;100619.31;;;34.76;50.99
74474;BME280;62922;-6.168;106.796;2022-10-31T06:59:12;100613.19;;;34.74;51.57
74474;BME280;62922;-6.168;106.796;2022-10-31T07:01:38;100603.78;;;34.70;50.97
74474;BME280;62922;-6.168;106.796;2022-10-31T07:04:04;100597.47;;;34.77;51.07
74474;BME280;62922;-6.168;106.796;2022-10-31T07:06:30;100596.28;;;34.78;50.94
74474;BME280;62922;-6.168;106.796;2022-10-31T07:08:55;100588.59;;;34.78;50.89
74474;BME280;62922;-6.168;106.796;2022-10-31T07:11:24;100585.75;;;34.78;50.83
74474;BME280;62922;-6.168;106.796;2022-10-31T07:13:52;100576.88;;;34.80;50.80
74474;BME280;62922;-6.168;106.796;2022-10-31T07:16:18;100575.34;;;34.82;51.04
74474;BME280;62922;-6.168;106.796;2022-10-31T07:18:43;100581.09;;;34.86;50.86
74474;BME280;62922;-6.168;106.796;2022-10-31T07:21:09;100581.47;;;34.84;50.62
74474;BME280;62922;-6.168;106.796;2022-10-31T07:23:35;100586.75;;;34.86;50.47
74474;BME280;62922;-6.168;106.796;2022-10-31T07:26:01;100589.22;;;34.87;50.55
74474;BME280;62922;-6.168;106.796;2022-10-31T07:28:27;100593.72;;;34.88;50.06
74474;BME280;62922;-6.168;106.796;2022-10-31T07:30:53;100582.28;;;34.85;49.65
74474;BME280;62922;-6.168;106.796;2022-10-31T07:33:22;100585.50;;;34.83;49.13
74474;BME280;62922;-6.168;106.796;2022-10-31T07:35:48;100577.00;;;34.83;49.39
74474;BME280;62922;-6.168;106.796;2022-10-31T07:38:14;100586.41;;;34.87;49.50
74474;BME280;62922;-6.168;106.796;2022-10-31T07:40:40;100576.81;;;34.92;49.10
74474;BME280;62922;-6.168;106.796;2022-10-31T07:43:07;100583.59;;;35.03;49.59
74474;BME280;62922;-6.168;106.796;2022-10-31T07:45:32;100584.84;;;35.05;50.05
74474;BME280;62922;-6.168;106.796;2022-10-31T07:48:01;100584.31;;;35.00;50.60
74474;BME280;62922;-6.168;106.796;2022-10-31T07:50:28;100585.50;;;34.99;50.63
74474;BME280;62922;-6.168;106.796;2022-10-31T07:55:23;100582.69;;;34.99;50.44
74474;BME280;62922;-6.168;106.796;2022-10-31T08:00:17;100575.72;;;34.96;50.79
74474;BME280;62922;-6.168;106.796;2022-10-31T08:02:43;100579.75;;;34.95;50.57
74474;BME280;62922;-6.168;106.796;2022-10-31T08:05:09;100578.72;;;34.88;50.72
74474;BME280;62922;-6.168;106.796;2022-10-31T08:07:35;100580.72;;;34.87;50.39
74474;BME280;62922;-6.168;106.796;2022-10-31T08:10:02;100574.25;;;34.87;51.03
74474;BME280;62922;-6.168;106.796;2022-10-31T08:12:28;100574.59;;;34.85;50.85
74474;BME280;62922;-6.168;106.796;2022-10-31T08:14:54;100577.34;;;34.82;50.82
74474;BME280;62922;-6.168;106.796;2022-10-31T08:17:22;100573.34;;;34.83;50.75
74474;BME280;62922;-6.168;106.796;2022-10-31T08:19:48;100572.59;;;34.86;50.63
74474;BME280;62922;-6.168;106.796;2022-10-31T08:22:14;100581.56;;;34.88;50.87
74474;BME280;62922;-6.168;106.796;2022-10-31T08:24:40;100584.66;;;34.83;50.60
74474;BME280;62922;-6.168;106.796;2022-10-31T08:27:06;100587.97;;;34.85;50.68
74474;BME280;62922;-6.168;106.796;2022-10-31T08:29:31;100598.94;;;34.86;50.40
74474;BME280;62922;-6.168;106.796;2022-10-31T08:31:57;100592.53;;;34.89;50.32
74474;BME280;62922;-6.168;106.796;2022-10-31T08:34:24;100606.78;;;34.93;50.37
74474;BME280;62922;-6.168;106.796;2022-10-31T08:36:53;100605.91;;;34.89;50.59
74474;BME280;62922;-6.168;106.796;2022-10-31T08:39:18;100607.28;;;34.95;50.30
74474;BME280;62922;-6.168;106.796;2022-10-31T08:41:44;100611.78;;;34.96;50.46
74474;BME280;62922;-6.168;106.796;2022-10-31T08:44:10;100610.59;;;34.97;50.80
74474;BME280;62922;-6.168;106.796;2022-10-31T08:46:36;100613.41;;;34.97;50.95
74474;BME280;62922;-6.168;106.796;2022-10-31T08:49:02;100611.50;;;35.01;50.52
74474;BME280;62922;-6.168;106.796;2022-10-31T08:51:28;100601.78;;;35.02;50.98
74474;BME280;62922;-6.168;106.796;2022-10-31T08:53:54;100617.63;;;35.03;50.67
74474;BME280;62922;-6.168;106.796;2022-10-31T08:56:19;100615.72;;;35.07;50.80
74474;BME280;62922;-6.168;106.796;2022-10-31T08:58:47;100616.59;;;35.11;50.60
74474;BME280;62922;-6.168;106.796;2022-10-31T09:01:13;100627.69;;;35.16;50.67
74474;BME280;62922;-6.168;106.796;2022-10-31T09:03:39;100616.72;;;35.14;50.30
74474;BME280;62922;-6.168;106.796;2022-10-31T09:06:05;100608.09;;;35.11;51.06
74474;BME280;62922;-6.168;106.796;2022-10-31T09:08:34;100604.84;;;35.09;50.57
74474;BME280;62922;-6.168;106.796;2022-10-31T09:11:00;100609.59;;;35.05;50.97
74474;BME280;62922;-6.168;106.796;2022-10-31T09:13:29;100609.13;;;35.03;51.19
74474;BME280;62922;-6.168;106.796;2022-10-31T09:15:55;100607.94;;;35.04;51.22
74474;BME280;62922;-6.168;106.796;2022-10-31T09:18:23;100616.06;;;35.05;51.22
74474;BME280;62922;-6.168;106.796;2022-10-31T09:20:49;100617.72;;;35.06;50.99
74474;BME280;62922;-6.168;106.796;2022-10-31T09:23:16;100609.59;;;35.05;51.16
74474;BME280;62922;-6.168;106.796;2022-10-31T09:25:42;100615.09;;;34.98;51.18
74474;BME280;62922;-6.168;106.796;2022-10-31T09:28:09;100610.47;;;34.93;51.51
74474;BME280;62922;-6.168;106.796;2022-10-31T09:30:35;100618.13;;;34.93;51.12
74474;BME280;62922;-6.168;106.796;2022-10-31T09:33:04;100614.84;;;34.91;51.78
74474;BME280;62922;-6.168;106.796;2022-10-31T09:35:31;100620.16;;;34.92;51.49
74474;BME280;62922;-6.168;106.796;2022-10-31T09:37:57;100618.63;;;34.95;51.71
74474;BME280;62922;-6.168;106.796;2022-10-31T09:40:27;100616.25;;;34.97;51.43
74474;BME280;62922;-6.168;106.796;2022-10-31T09:45:26;100625.00;;;34.92;51.56
74474;BME280;62922;-6.168;106.796;2022-10-31T09:48:01;100630.97;;;34.87;51.82
74474;BME280;62922;-6.168;106.796;2022-10-31T09:50:41;100632.97;;;34.86;51.40
74474;BME280;62922;-6.168;106.796;2022-10-31T09:53:10;100628.03;;;34.83;51.51
74474;BME280;62922;-6.168;106.796;2022-10-31T09:55:41;100628.13;;;34.87;51.66
74474;BME280;62922;-6.168;106.796;2022-10-31T09:58:13;100633.34;;;34.85;51.60
74474;BME280;62922;-6.168;106.796;2022-10-31T10:00:40;100634.50;;;34.84;51.83
74474;BME280;62922;-6.168;106.796;2022-10-31T10:05:37;100637.34;;;34.84;52.11
74474;BME280;62922;-6.168;106.796;2022-10-31T10:10:36;100638.53;;;34.83;51.97
74474;BME280;62922;-6.168;106.796;2022-10-31T10:18:06;100667.25;;;34.81;51.72
74474;BME280;62922;-6.168;106.796;2022-10-31T10:25:32;100648.97;;;34.79;51.65
74474;BME280;62922;-6.168;106.796;2022-10-31T10:28:02;100655.00;;;34.77;51.87
74474;BME280;62922;-6.168;106.796;2022-10-31T10:33:00;100654.53;;;34.75;51.80
74474;BME280;62922;-6.168;106.796;2022-10-31T10:35:31;100660.94;;;34.72;51.93
74474;BME280;62922;-6.168;106.796;2022-10-31T10:38:02;100669.44;;;34.72;51.97
74474;BME280;62922;-6.168;106.796;2022-10-31T10:40:33;100668.16;;;34.70;51.81
74474;BME280;62922;-6.168;106.796;2022-10-31T10:45:30;100677.47;;;34.70;51.83
74474;BME280;62922;-6.168;106.796;2022-10-31T10:48:24;100674.97;;;34.69;51.89
74474;BME280;62922;-6.168;106.796;2022-10-31T10:50:47;100681.03;;;34.67;51.92
74474;BME280;62922;-6.168;106.796;2022-10-31T10:53:18;100680.56;;;34.65;51.96
74474;BME280;62922;-6.168;106.796;2022-10-31T10:58:25;100699.59;;;34.65;52.08
74474;BME280;62922;-6.168;106.796;2022-10-31T11:00:51;100699.59;;;34.65;52.29
74474;BME280;62922;-6.168;106.796;2022-10-31T11:03:18;100704.81;;;34.63;51.71
74474;BME280;62922;-6.168;106.796;2022-10-31T11:05:48;100720.97;;;34.62;52.12
74474;BME280;62922;-6.168;106.796;2022-10-31T11:10:44;100723.34;;;34.60;52.02
74474;BME280;62922;-6.168;106.796;2022-10-31T11:15:49;100736.25;;;34.58;52.46
74474;BME280;62922;-6.168;106.796;2022-10-31T11:18:23;100739.41;;;34.56;52.33
74474;BME280;62922;-6.168;106.796;2022-10-31T11:20:51;100745.09;;;34.56;52.21
74474;BME280;62922;-6.168;106.796;2022-10-31T11:23:18;100754.78;;;34.55;52.35
74474;BME280;62922;-6.168;106.796;2022-10-31T11:28:18;100766.00;;;34.52;52.43
74474;BME280;62922;-6.168;106.796;2022-10-31T11:30:45;100763.06;;;34.48;52.61
74474;BME280;62922;-6.168;106.796;2022-10-31T11:33:21;100770.75;;;34.47;52.25
74474;BME280;62922;-6.168;106.796;2022-10-31T11:35:48;100774.41;;;34.48;52.44
74474;BME280;62922;-6.168;106.796;2022-10-31T11:38:15;100776.41;;;34.47;52.14
74474;BME280;62922;-6.168;106.796;2022-10-31T11:40:51;100785.28;;;34.46;52.59
74474;BME280;62922;-6.168;106.796;2022-10-31T11:43:17;100779.47;;;34.42;52.50
74474;BME280;62922;-6.168;106.796;2022-10-31T11:45:43;100785.94;;;34.43;51.93
74474;BME280;62922;-6.168;106.796;2022-10-31T11:50:39;100785.13;;;34.42;52.33
74474;BME280;62922;-6.168;106.796;2022-10-31T11:55:37;100807.34;;;34.40;52.04
74474;BME280;62922;-6.168;106.796;2022-10-31T11:58:03;100813.72;;;34.37;52.59
74474;BME280;62922;-6.168;106.796;2022-10-31T12:00:30;100819.41;;;34.37;52.01
74474;BME280;62922;-6.168;106.796;2022-10-31T12:05:30;100820.56;;;34.36;52.21
74474;BME280;62922;-6.168;106.796;2022-10-31T12:07:58;100815.63;;;34.33;52.49
74474;BME280;62922;-6.168;106.796;2022-10-31T12:10:25;100815.63;;;34.33;52.04
74474;BME280;62922;-6.168;106.796;2022-10-31T12:27:50;100841.47;;;34.32;52.45
74474;BME280;62922;-6.168;106.796;2022-10-31T12:30:23;100833.31;;;34.30;52.11
74474;BME280;62922;-6.168;106.796;2022-10-31T12:55:04;100860.56;;;34.23;52.10
74474;BME280;62922;-6.168;106.796;2022-10-31T12:57:36;100863.78;;;34.21;52.29
74474;BME280;62922;-6.168;106.796;2022-10-31T13:12:21;100886.31;;;34.18;52.33
74474;BME280;62922;-6.168;106.796;2022-10-31T13:17:18;100890.34;;;34.17;52.25
74474;BME280;62922;-6.168;106.796;2022-10-31T13:19:46;100900.84;;;34.16;52.27
74474;BME280;62922;-6.168;106.796;2022-10-31T13:27:33;100913.25;;;34.12;52.03
74474;BME280;62922;-6.168;106.796;2022-10-31T13:29:56;100918.44;;;34.10;52.11
74474;BME280;62922;-6.168;106.796;2022-10-31T13:32:25;100929.41;;;34.11;52.20
74474;BME280;62922;-6.168;106.796;2022-10-31T13:34:53;100922.91;;;34.11;52.10
74474;BME280;62922;-6.168;106.796;2022-10-31T13:42:20;100936.59;;;34.09;52.14
74474;BME280;62922;-6.168;106.796;2022-10-31T13:44:49;100935.31;;;34.06;52.00
74474;BME280;62922;-6.168;106.796;2022-10-31T13:49:43;100935.31;;;34.06;51.79
74474;BME280;62922;-6.168;106.796;2022-10-31T13:54:36;100935.88;;;34.00;51.85
74474;BME280;62922;-6.168;106.796;2022-10-31T13:57:06;100948.38;;;33.99;52.51
74474;BME280;62922;-6.168;106.796;2022-10-31T13:59:32;100943.88;;;33.98;52.73
74474;BME280;62922;-6.168;106.796;2022-10-31T14:02:02;100949.53;;;33.98;52.27
74474;BME280;62922;-6.168;106.796;2022-10-31T14:04:43;100953.06;;;33.95;52.69
74474;BME280;62922;-6.168;106.796;2022-10-31T14:07:12;100965.25;;;33.95;52.74
74474;BME280;62922;-6.168;106.796;2022-10-31T14:09:57;100959.06;;;33.93;52.74
74474;BME280;62922;-6.168;106.796;2022-10-31T14:14:51;100951.75;;;33.92;52.82
74474;BME280;62922;-6.168;106.796;2022-10-31T14:17:22;100954.44;;;33.89;52.06
74474;BME280;62922;-6.168;106.796;2022-10-31T14:22:19;100957.63;;;33.87;52.11
74474;BME280;62922;-6.168;106.796;2022-10-31T14:24:46;100962.94;;;33.89;52.64
74474;BME280;62922;-6.168;106.796;2022-10-31T14:29:40;100962.47;;;33.87;52.47
74474;BME280;62922;-6.168;106.796;2022-10-31T14:37:08;100973.31;;;33.85;52.20
74474;BME280;62922;-6.168;106.796;2022-10-31T14:51:57;100969.63;;;33.72;52.77
74474;BME280;62922;-6.168;106.796;2022-10-31T14:54:27;100975.63;;;33.71;52.83
74474;BME280;62922;-6.168;106.796;2022-10-31T14:57:20;100979.66;;;33.70;52.99
74474;BME280;62922;-6.168;106.796;2022-10-31T14:59:42;100977.97;;;33.69;52.20
74474;BME280;62922;-6.168;106.796;2022-10-31T15:02:14;100975.16;;;33.69;52.75
74474;BME280;62922;-6.168;106.796;2022-10-31T15:04:41;100971.00;;;33.66;52.73
74474;BME280;62922;-6.168;106.796;2022-10-31T15:07:12;100977.50;;;33.67;52.83
74474;BME280;62922;-6.168;106.796;2022-10-31T15:09:40;100974.66;;;33.67;52.45
74474;BME280;62922;-6.168;106.796;2022-10-31T15:14:37;100967.84;;;33.68;52.89
74474;BME280;62922;-6.168;106.796;2022-10-31T15:17:03;100965.34;;;33.66;52.40
74474;BME280;62922;-6.168;106.796;2022-10-31T15:19:30;100970.19;;;33.66;52.92
74474;BME280;62922;-6.168;106.796;2022-10-31T15:21:57;100970.19;;;33.66;52.85